createdAt,value
2019-02-15T05:00:26.910Z,99.029541
2019-02-15T05:03:54.811Z,98.718262
2019-02-15T05:07:22.724Z,99.029541
2019-02-15T05:10:50.623Z,99.029541
2019-02-15T05:14:18.539Z,99.237061
2019-02-15T05:17:46.421Z,99.487305
2019-02-15T05:21:14.332Z,99.54834
2019-02-15T05:24:42.237Z,99.54834
2019-02-15T05:28:10.124Z,99.755859
2019-02-15T05:31:39.015Z,99.859619
2019-02-15T05:35:06.919Z,99.859619
2019-02-15T05:38:35.801Z,99.963379
2019-02-15T05:42:04.705Z,99.993896
2019-02-15T05:45:32.602Z,99.993896
2019-02-15T05:49:01.492Z,99.993896
2019-02-15T05:52:29.392Z,99.993896
2019-02-15T05:55:58.300Z,99.993896
2019-02-15T05:59:26.202Z,99.993896
2019-02-15T06:02:54.092Z,99.993896
2019-02-15T06:06:22.009Z,99.993896
2019-02-15T06:09:49.917Z,99.993896
2019-02-15T06:13:17.807Z,99.993896
2019-02-15T06:16:45.719Z,99.993896
2019-02-15T06:20:13.633Z,99.993896
2019-02-15T06:23:41.517Z,99.993896
2019-02-15T06:27:09.419Z,99.993896
2019-02-15T06:30:37.321Z,99.993896
2019-02-15T06:34:05.313Z,99.993896
2019-02-15T06:37:33.208Z,99.993896
2019-02-15T06:41:01.117Z,99.993896
2019-02-15T06:44:29.028Z,99.993896
2019-02-15T06:47:56.913Z,99.993896
2019-02-15T06:51:24.810Z,99.993896
2019-02-15T06:54:52.959Z,99.993896
2019-02-15T06:58:20.851Z,99.993896
2019-02-15T07:01:48.767Z,99.993896
2019-02-15T07:05:16.667Z,99.993896
2019-02-15T07:08:44.556Z,99.993896
2019-02-15T07:12:12.454Z,99.993896
2019-02-15T07:15:40.356Z,99.993896
2019-02-15T07:19:08.255Z,99.993896
2019-02-15T07:22:36.154Z,99.993896
2019-02-15T07:26:04.069Z,99.993896
2019-02-15T07:29:31.952Z,99.993896
2019-02-15T07:32:59.856Z,99.993896
2019-02-15T07:36:27.761Z,99.993896
2019-02-15T07:39:56.651Z,99.993896
2019-02-15T07:43:24.531Z,99.993896
2019-02-15T07:46:52.432Z,99.993896
2019-02-15T07:50:20.345Z,99.993896
2019-02-15T07:53:48.232Z,99.993896
2019-02-15T07:57:16.140Z,99.993896
2019-02-15T08:00:44.044Z,99.993896
2019-02-15T08:04:11.933Z,99.993896
2019-02-15T08:07:39.835Z,99.993896
2019-02-15T08:11:07.744Z,99.993896
2019-02-15T08:14:35.634Z,99.993896
2019-02-15T08:18:03.537Z,99.993896
2019-02-15T08:21:31.447Z,99.993896
2019-02-15T08:24:59.336Z,99.993896
2019-02-15T08:28:28.237Z,99.993896
2019-02-15T08:31:56.149Z,99.993896
2019-02-15T08:35:25.026Z,99.993896
2019-02-15T08:38:53.002Z,99.993896
2019-02-15T08:42:20.857Z,99.993896
2019-02-15T08:45:49.735Z,99.993896
2019-02-15T08:49:21.607Z,99.993896
2019-02-15T08:52:49.514Z,99.993896
2019-02-15T08:56:18.412Z,99.993896
2019-02-15T08:59:46.380Z,99.993896
2019-02-15T09:03:14.285Z,99.987793
2019-02-15T09:06:43.231Z,99.102783
2019-02-15T09:10:12.108Z,98.638916
2019-02-15T09:13:40.008Z,98.065186
2019-02-15T09:17:07.907Z,97.753906
2019-02-15T09:20:35.813Z,97.442627
2019-02-15T09:24:03.756Z,96.716309
2019-02-15T09:27:32.000Z,96.508789
2019-02-15T09:31:00.042Z,96.673584
2019-02-15T09:34:27.942Z,94.909668
2019-02-15T09:37:56.838Z,95.324707
2019-02-15T09:41:24.769Z,94.866943
2019-02-15T09:44:52.691Z,94.348145
2019-02-15T09:48:20.718Z,92.651367
2019-02-15T09:51:48.754Z,92.089844
2019-02-15T09:55:17.661Z,91.320801
2019-02-15T09:58:46.525Z,90.704346
2019-02-15T10:02:15.431Z,90.454102
2019-02-15T10:05:43.337Z,88.861084
2019-02-15T10:09:11.251Z,87.786865
2019-02-15T10:12:39.161Z,86.981201
2019-02-15T10:16:08.064Z,84.143066
2019-02-15T10:19:35.965Z,80.566406
2019-02-15T10:23:03.880Z,78.820801
2019-02-15T10:26:31.967Z,78.4729
2019-02-15T10:29:59.846Z,78.991699
2019-02-15T10:33:28.741Z,80.157471
2019-02-15T10:36:56.631Z,80.566406
2019-02-15T10:40:24.544Z,80.328369
2019-02-15T10:43:52.462Z,78.497314
2019-02-15T10:47:24.845Z,73.22998
2019-02-15T10:50:51.303Z,68.157959
2019-02-15T10:54:20.249Z,65.2771
2019-02-15T10:57:48.164Z,63.482666
2019-02-15T11:01:16.079Z,61.181641
2019-02-15T11:04:44.002Z,61.309814
2019-02-15T11:08:11.898Z,63.031006
2019-02-15T11:11:39.797Z,64.416504
2019-02-15T11:15:07.738Z,64.489746
2019-02-15T11:18:36.636Z,63.092041
2019-02-15T11:22:05.549Z,63.262939
2019-02-15T11:25:33.476Z,61.907959
2019-02-15T11:29:02.375Z,61.853027
2019-02-15T11:32:30.273Z,59.960938
2019-02-15T11:35:58.205Z,58.148193
2019-02-15T11:39:26.145Z,57.843018
2019-02-15T11:42:54.058Z,56.518555
2019-02-15T11:46:22.965Z,56.317139
2019-02-15T11:49:50.900Z,56.854248
2019-02-15T11:53:18.838Z,56.066895
2019-02-15T11:56:46.743Z,57.617188
2019-02-15T12:00:17.784Z,56.80542
2019-02-15T12:03:47.549Z,56.37207
2019-02-15T12:07:15.510Z,56.854248
2019-02-15T12:10:44.403Z,56.445312
2019-02-15T12:14:12.333Z,54.510498
2019-02-15T12:17:40.359Z,56.677246
2019-02-15T12:21:08.259Z,55.584717
2019-02-15T12:24:36.173Z,54.974365
2019-02-15T12:28:05.098Z,56.115723
2019-02-15T12:31:33.029Z,55.810547
2019-02-15T12:35:00.967Z,56.195068
2019-02-15T12:38:28.919Z,56.37207
2019-02-15T12:41:57.802Z,56.195068
2019-02-15T12:45:25.732Z,56.091309
2019-02-15T12:48:53.678Z,56.933594
2019-02-15T12:52:21.577Z,55.987549
2019-02-15T12:55:49.535Z,55.682373
2019-02-15T12:59:17.528Z,54.663086
2019-02-15T13:02:45.453Z,56.70166
2019-02-15T13:06:13.409Z,55.175781
2019-02-15T13:09:42.389Z,57.110596
2019-02-15T13:13:11.513Z,55.859375
2019-02-15T13:16:39.544Z,55.529785
2019-02-15T13:20:07.552Z,57.080078
2019-02-15T13:23:35.470Z,56.982422
2019-02-15T13:27:03.387Z,57.794189
2019-02-15T13:30:31.375Z,56.469727
2019-02-15T13:34:00.355Z,57.080078
2019-02-15T13:37:28.392Z,56.164551
2019-02-15T13:40:56.331Z,55.987549
2019-02-15T13:44:24.410Z,57.592773
2019-02-15T13:47:53.468Z,58.581543
2019-02-15T13:51:21.461Z,56.854248
2019-02-15T13:54:49.428Z,56.951904
2019-02-15T13:58:17.402Z,57.867432
2019-02-15T14:01:45.378Z,57.843018
2019-02-15T14:05:13.382Z,57.336426
2019-02-15T14:08:42.301Z,58.477783
2019-02-15T14:12:10.274Z,57.055664
2019-02-15T14:15:38.237Z,57.128906
2019-02-15T14:19:06.236Z,56.726074
2019-02-15T14:22:34.181Z,54.998779
2019-02-15T14:26:02.163Z,56.243896
2019-02-15T14:29:30.951Z,57.666016
2019-02-15T14:32:58.917Z,55.072021
2019-02-15T14:36:26.842Z,56.70166
2019-02-15T14:39:54.807Z,56.396484
2019-02-15T14:43:22.782Z,57.110596
2019-02-15T14:46:50.697Z,57.720947
2019-02-15T14:50:18.617Z,57.006836
2019-02-15T14:53:46.534Z,55.303955
2019-02-15T14:57:14.454Z,55.841064
2019-02-15T15:00:42.357Z,55.841064
2019-02-15T15:04:10.280Z,55.456543
2019-02-15T15:07:38.222Z,56.80542
2019-02-15T15:11:06.126Z,55.383301
2019-02-15T15:14:35.069Z,55.023193
2019-02-15T15:18:12.622Z,54.614258
2019-02-15T15:21:36.965Z,54.437256
2019-02-15T15:25:05.003Z,54.35791
2019-02-15T15:28:33.100Z,55.889893
2019-02-15T15:32:01.508Z,58.24585
2019-02-15T15:35:29.543Z,55.712891
2019-02-15T15:38:57.520Z,57.348633
2019-02-15T15:42:25.507Z,59.216309
2019-02-15T15:45:53.550Z,58.526611
2019-02-15T15:49:21.514Z,60.095215
2019-02-15T15:52:49.553Z,60.223389
2019-02-15T15:56:17.503Z,59.503174
2019-02-15T15:59:45.641Z,62.194824
2019-02-15T16:03:13.595Z,61.712646
2019-02-15T16:06:41.495Z,61.51123
2019-02-15T16:10:09.442Z,63.049316
2019-02-15T16:13:37.396Z,64.233398
2019-02-15T16:17:05.290Z,65.496826
2019-02-15T16:20:34.199Z,64.294434
2019-02-15T16:24:02.445Z,63.470459
2019-02-15T16:27:35.529Z,63.885498
2019-02-15T16:31:04.885Z,64.910889
2019-02-15T16:34:33.663Z,67.126465
2019-02-15T16:38:02.003Z,66.027832
2019-02-15T16:41:29.942Z,67.059326
2019-02-15T16:44:57.877Z,66.851807
2019-02-15T16:48:25.781Z,69.763184
2019-02-15T16:51:56.404Z,71.032715
2019-02-15T16:55:24.574Z,72.955322
2019-02-15T16:58:52.511Z,74.255371
2019-02-15T17:02:20.427Z,76.147461
2019-02-15T17:05:48.387Z,77.838135
2019-02-15T17:09:16.297Z,77.874756
2019-02-15T17:12:44.193Z,77.600098
2019-02-15T17:16:12.113Z,78.045654
2019-02-15T17:19:40.032Z,78.875732
2019-02-15T17:23:07.948Z,79.016113
2019-02-15T17:26:35.907Z,79.56543
2019-02-15T17:30:03.799Z,80.291748
2019-02-15T17:33:31.694Z,79.772949
2019-02-15T17:36:59.609Z,81.054688
2019-02-15T17:40:28.524Z,82.397461
2019-02-15T17:43:56.443Z,80.847168
2019-02-15T17:47:24.363Z,81.091309
2019-02-15T17:50:52.290Z,82.336426
2019-02-15T17:54:20.198Z,82.232666
2019-02-15T17:57:49.103Z,82.952881
2019-02-15T18:01:17.064Z,82.476807
2019-02-15T18:04:45.445Z,82.684326
2019-02-15T18:08:13.421Z,83.514404
2019-02-15T18:11:41.351Z,83.862305
2019-02-15T18:15:10.315Z,83.343506
2019-02-15T18:18:38.278Z,83.654785
2019-02-15T18:22:07.193Z,81.646729
2019-02-15T18:25:35.433Z,79.504395
2019-02-15T18:29:03.423Z,80.12085
2019-02-15T18:32:31.445Z,80.053711
2019-02-15T18:35:59.424Z,79.80957
2019-02-15T18:39:27.426Z,78.155518
2019-02-15T18:42:55.471Z,78.741455
2019-02-15T18:46:24.476Z,77.392578
2019-02-15T18:49:52.542Z,75.396729
2019-02-15T18:53:20.427Z,73.840332
2019-02-15T18:56:48.524Z,75.805664
2019-02-15T19:00:16.582Z,74.462891
2019-02-15T19:03:45.449Z,75.738525
2019-02-15T19:07:13.490Z,76.776123
2019-02-15T19:10:43.602Z,76.086426
2019-02-15T19:14:11.844Z,77.636719
2019-02-15T19:17:39.812Z,78.540039
2019-02-15T19:21:07.839Z,76.879883
2019-02-15T19:24:35.851Z,76.879883
2019-02-15T19:28:03.813Z,78.399658
2019-02-15T19:32:54.984Z,78.192139
2019-02-15T19:36:22.941Z,78.540039
2019-02-15T19:39:52.010Z,77.398682
2019-02-15T19:43:20.010Z,77.087402
2019-02-15T19:46:48.058Z,75.500488
2019-02-15T19:50:16.011Z,73.602295
2019-02-15T19:53:43.951Z,75.500488
2019-02-15T19:57:12.112Z,73.809814
2019-02-15T20:00:41.085Z,71.807861
2019-02-15T20:04:09.056Z,70.568848
2019-02-15T20:07:37.986Z,71.911621
2019-02-15T20:11:05.949Z,70.977783
2019-02-15T20:14:33.958Z,71.704102
2019-02-15T20:18:01.951Z,71.392822
2019-02-15T20:21:29.942Z,70.770264
2019-02-15T20:24:58.976Z,70.324707
2019-02-15T20:28:27.927Z,71.466064
2019-02-15T20:31:55.961Z,71.081543
2019-02-15T20:35:23.989Z,71.392822
2019-02-15T20:38:51.962Z,73.461914
2019-02-15T20:42:19.921Z,71.704102
2019-02-15T20:45:48.050Z,73.809814
2019-02-15T20:49:17.113Z,74.017334
2019-02-15T20:52:44.970Z,74.462891
2019-02-15T20:56:13.142Z,76.049805
2019-02-15T20:59:41.176Z,74.395752
2019-02-15T21:03:10.080Z,74.047852
2019-02-15T21:06:38.078Z,71.838379
2019-02-15T21:10:06.007Z,72.32666
2019-02-15T21:13:33.976Z,73.150635
2019-02-15T21:17:01.952Z,74.87793
2019-02-15T21:20:30.612Z,73.114014
2019-02-15T21:23:58.648Z,74.359131
2019-02-15T21:27:26.588Z,72.705078
2019-02-15T21:30:54.600Z,72.979736
2019-02-15T21:34:22.515Z,73.187256
2019-02-15T21:37:51.128Z,73.425293
2019-02-15T21:41:20.259Z,72.912598
2019-02-15T21:44:48.223Z,73.602295
2019-02-15T21:48:17.155Z,72.772217
2019-02-15T21:51:45.301Z,72.808838
2019-02-15T21:55:14.470Z,73.944092
2019-02-15T21:58:42.502Z,74.462891
2019-02-15T22:02:10.429Z,74.047852
2019-02-15T22:05:38.355Z,73.321533
2019-02-15T22:09:06.296Z,73.736572
2019-02-15T22:12:34.237Z,73.840332
2019-02-15T22:16:02.172Z,73.944092
2019-02-15T22:19:30.096Z,73.291016
2019-02-15T22:22:59.006Z,73.736572
2019-02-15T22:26:26.895Z,73.394775
2019-02-15T22:29:55.807Z,73.809814
2019-02-15T22:33:23.783Z,73.944092
2019-02-15T22:36:51.646Z,74.67041
2019-02-15T22:40:20.555Z,74.255371
2019-02-15T22:43:48.482Z,73.840332
2019-02-15T22:47:16.377Z,73.809814
2019-02-15T22:50:44.312Z,73.809814
2019-02-15T22:54:12.227Z,74.462891
2019-02-15T22:57:40.113Z,74.047852
